Terminal Aerodrome Forecast
Issued by NWS Shreveport, LA

Home | Current Version | Previous Version | Text Only | Print | Product List | Glossary On
Versions: 1 2 3 4 5 6 7 8 9 10 11 12 13 14 15 16
000
FTUS44 KSHV 270800 AAA
TAFMLU
TAF AMD
KMLU 270825Z 2708/2806 15005KT P6SM VCSH SCT023 OVC035
      TEMPO 2710/2712 5SM -SHRA BR OVC023
     FM271200 14005KT 6SM BR BKN008 OVC023
      TEMPO 2712/2714 3SM SHRA BR OVC008
     FM271400 15004KT 1 1/2SM SHRA BR OVC003
     FM271800 17006KT 3SM -TSRA BR OVC008CB
     FM272100 VRB05KT 4SM -RA BR OVC015
     FM280200 36005KT 2SM -RA BR OVC004=

USA.gov is the U.S. government's official web portal to all federal, state and local government web resources and services.